Time;durP1;ratioP1;P1;durP2;ratioP2;P2;SDS_P1;SDS_P2;PMS_P1;PMS_P2;Temp;Humidity;BMP_temperature;BMP_pressure;BME280_temperature;BME280_humidity;BME280_pressure;Samples;Min_cycle;Max_cycle;Signal;HPM_P1;HPM_P2
2022/04/20 00:01:48;;;;;;;1.65;0.77;;;14.60;34.10;;;;;;2332022;53;21969;-85
2022/04/20 00:04:15;;;;;;;2.70;0.80;;;14.60;33.90;;;;;;2583869;52;20908;-85
2022/04/20 00:06:42;;;;;;;3.20;0.90;;;14.70;33.80;;;;;;2589005;53;21878;-84
2022/04/20 00:09:08;;;;;;;2.10;0.88;;;14.80;33.80;;;;;;2589942;53;21067;-84
2022/04/20 00:11:35;;;;;;;1.87;0.88;;;14.80;33.70;;;;;;2566709;52;20951;-84
2022/04/20 00:14:01;;;;;;;1.52;0.75;;;14.90;33.60;;;;;;2587912;52;20893;-85
2022/04/20 00:16:27;;;;;;;2.35;1.02;;;14.90;33.50;;;;;;2563221;52;20922;-83
2022/04/20 00:18:54;;;;;;;1.45;0.65;;;14.90;33.50;;;;;;2585304;52;21926;-85
2022/04/20 00:21:24;;;;;;;2.08;0.88;;;14.90;33.40;;;;;;2590917;53;21015;-85
2022/04/20 00:23:50;;;;;;;2.40;1.10;;;14.90;33.30;;;;;;2590901;53;20940;-84
2022/04/20 00:26:17;;;;;;;2.28;0.95;;;14.90;33.10;;;;;;2591382;53;21019;-84
2022/04/20 00:28:44;;;;;;;2.40;0.70;;;14.90;33.10;;;;;;2571384;52;20940;-83
2022/04/20 00:31:10;;;;;;;1.17;0.60;;;14.90;33.10;;;;;;2350721;53;21039;-85
2022/04/20 00:33:37;;;;;;;2.20;0.80;;;14.90;33.10;;;;;;2340944;53;20929;-84
2022/04/20 00:36:04;;;;;;;1.77;0.80;;;14.80;32.90;;;;;;2581180;52;20955;-84
2022/04/20 00:38:31;;;;;;;1.67;0.80;;;14.80;33.00;;;;;;2571033;52;20987;-85
2022/04/20 00:40:57;;;;;;;3.20;1.08;;;14.80;32.90;;;;;;2590699;53;20967;-84
2022/04/20 00:43:24;;;;;;;2.08;1.05;;;14.70;32.80;;;;;;2590966;53;20940;-85
2022/04/20 00:45:50;;;;;;;2.28;1.10;;;14.70;32.80;;;;;;2345488;54;20959;-84
2022/04/20 00:48:17;;;;;;;1.83;0.90;;;14.70;32.90;;;;;;2563484;53;21957;-84
2022/04/20 00:50:43;;;;;;;3.67;1.00;;;14.70;32.90;;;;;;2590954;53;21091;-83
2022/04/20 00:53:09;;;;;;;2.10;1.00;;;14.70;32.90;;;;;;2590893;53;20932;-82
2022/04/20 00:55:35;;;;;;;2.78;1.00;;;14.60;32.80;;;;;;2345437;54;20932;-83
2022/04/20 00:58:02;;;;;;;3.28;1.12;;;14.60;32.80;;;;;;2566857;52;22219;-84
2022/04/20 01:00:29;;;;;;;2.58;0.93;;;14.60;32.80;;;;;;2585086;52;21989;-84
2022/04/20 01:02:56;;;;;;;2.47;1.02;;;14.60;32.80;;;;;;2589835;53;21038;-84
2022/04/20 01:05:23;;;;;;;2.30;0.90;;;14.70;32.90;;;;;;2589608;53;20932;-85
2022/04/20 01:07:49;;;;;;;2.60;0.88;;;14.60;32.80;;;;;;2579536;52;20983;-84
2022/04/20 01:10:16;;;;;;;1.90;0.90;;;14.60;32.80;;;;;;2574732;52;20972;-84
2022/04/20 01:12:44;;;;;;;3.15;1.00;;;14.60;32.60;;;;;;2590884;53;21926;-83
2022/04/20 01:15:10;;;;;;;4.10;1.00;;;14.60;32.70;;;;;;2591151;53;20917;-85
2022/04/20 01:17:36;;;;;;;2.20;0.82;;;14.60;32.60;;;;;;2326187;53;21006;-83
2022/04/20 01:20:03;;;;;;;2.25;0.88;;;14.60;32.60;;;;;;2345706;54;21015;-85
2022/04/20 01:22:30;;;;;;;3.00;1.27;;;14.60;32.70;;;;;;2591273;53;20971;-84
2022/04/20 01:24:57;;;;;;;2.78;1.12;;;14.60;32.60;;;;;;2591696;53;21055;-84
2022/04/20 01:27:24;;;;;;;2.20;0.98;;;14.60;32.60;;;;;;2591320;53;21015;-84
2022/04/20 01:29:50;;;;;;;1.83;0.82;;;14.60;32.60;;;;;;2591161;53;21874;-84
2022/04/20 01:32:16;;;;;;;2.42;0.82;;;14.60;32.60;;;;;;2591178;53;21102;-83
2022/04/20 01:34:43;;;;;;;2.22;1.08;;;14.50;32.50;;;;;;2567263;52;21007;-84
2022/04/20 01:37:10;;;;;;;2.10;1.00;;;14.50;32.50;;;;;;2342286;53;20948;-84
2022/04/20 01:39:36;;;;;;;3.87;0.95;;;14.50;32.50;;;;;;2591145;53;20916;-84
2022/04/20 01:42:02;;;;;;;2.50;0.90;;;14.50;32.50;;;;;;2590677;53;21097;-84
2022/04/20 01:44:29;;;;;;;2.40;0.90;;;14.40;32.50;;;;;;2346097;54;20927;-85
2022/04/20 01:46:56;;;;;;;2.75;1.20;;;14.40;32.50;;;;;;2562964;53;21055;-84
2022/04/20 01:49:22;;;;;;;4.65;1.60;;;14.40;32.50;;;;;;2346039;54;20980;-84
2022/04/20 01:51:51;;;;;;;2.25;0.95;;;14.40;32.50;;;;;;2587096;53;20983;-83
2022/04/20 01:54:20;;;;;;;2.40;0.95;;;14.20;32.30;;;;;;2568454;52;21045;-83
2022/04/20 01:56:48;;;;;;;2.42;1.10;;;14.40;32.50;;;;;;2588880;52;20931;-84
2022/04/20 01:59:14;;;;;;;3.42;0.90;;;14.30;32.40;;;;;;2344528;54;20949;-84
2022/04/20 02:04:26;;;;;;;2.53;1.00;;;14.30;32.40;;;;;;2345365;54;20924;-84
2022/04/20 02:06:53;;;;;;;2.72;1.10;;;14.30;32.40;;;;;;2590447;53;21512;-84
2022/04/20 02:09:19;;;;;;;1.83;0.77;;;14.30;32.40;;;;;;2346002;54;20935;-84
2022/04/20 02:11:45;;;;;;;2.60;0.98;;;14.30;32.40;;;;;;2346984;54;20939;-85
2022/04/20 02:14:12;;;;;;;2.17;0.90;;;14.30;32.50;;;;;;2345734;54;20984;-84
2022/04/20 02:16:39;;;;;;;2.50;1.15;;;14.20;32.40;;;;;;2590164;53;20964;-84
2022/04/20 02:19:05;;;;;;;5.12;1.20;;;14.20;32.40;;;;;;2344989;54;21007;-84
2022/04/20 02:21:31;;;;;;;2.42;1.17;;;14.20;32.40;;;;;;2347690;54;21023;-84
2022/04/20 02:23:58;;;;;;;3.10;0.80;;;14.20;32.40;;;;;;2561172;52;20908;-84
2022/04/20 02:26:24;;;;;;;5.18;1.15;;;14.20;32.40;;;;;;2586242;53;20933;-84
2022/04/20 02:28:51;;;;;;;2.58;1.08;;;14.10;32.40;;;;;;2585871;53;20928;-85
2022/04/20 02:31:17;;;;;;;2.05;1.12;;;14.10;32.30;;;;;;2565972;52;21893;-84
2022/04/20 02:33:44;;;;;;;3.78;1.00;;;14.10;32.30;;;;;;2344683;54;20990;-84
2022/04/20 02:36:10;;;;;;;2.37;1.08;;;14.10;32.40;;;;;;2345348;54;21062;-83
2022/04/20 02:38:36;;;;;;;2.10;1.00;;;14.10;32.30;;;;;;2591702;53;21889;-84
2022/04/20 02:41:03;;;;;;;3.42;0.80;;;14.10;32.40;;;;;;2589694;53;21038;-83
2022/04/20 02:43:29;;;;;;;2.75;0.77;;;14.00;32.30;;;;;;2327117;53;20951;-84
2022/04/20 02:45:56;;;;;;;2.95;1.05;;;14.00;32.40;;;;;;2587853;53;21119;-85
2022/04/20 02:48:22;;;;;;;1.83;0.90;;;14.00;32.40;;;;;;2563403;52;20931;-84
2022/04/20 02:50:48;;;;;;;4.47;0.90;;;14.00;32.50;;;;;;2326158;53;21117;-84
2022/04/20 02:53:15;;;;;;;3.08;1.45;;;14.00;32.50;;;;;;2561776;52;21042;-84
2022/04/20 02:55:44;;;;;;;1.95;0.90;;;13.90;32.40;;;;;;2591552;53;20991;-84
2022/04/20 02:58:11;;;;;;;2.22;1.00;;;13.90;32.40;;;;;;2564062;53;21926;-84
2022/04/20 03:00:38;;;;;;;3.08;0.90;;;13.80;32.30;;;;;;2591924;53;20987;-84
2022/04/20 03:03:05;;;;;;;2.05;0.90;;;13.70;32.30;;;;;;2346730;54;21035;-84
2022/04/20 03:05:32;;;;;;;2.78;1.20;;;13.70;32.40;;;;;;2591520;53;20940;-84
2022/04/20 03:07:58;;;;;;;1.75;0.80;;;13.60;32.40;;;;;;2346355;54;20976;-84
2022/04/20 03:10:25;;;;;;;2.72;0.90;;;13.60;32.40;;;;;;2591415;53;21055;-85
2022/04/20 03:12:52;;;;;;;2.08;0.80;;;13.50;32.40;;;;;;2591373;53;20972;-84
2022/04/20 03:15:18;;;;;;;1.95;0.80;;;13.50;32.50;;;;;;2592101;53;20932;-84
2022/04/20 03:17:45;;;;;;;2.12;0.90;;;13.40;32.50;;;;;;2591958;53;21906;-84
2022/04/20 03:20:11;;;;;;;1.98;0.90;;;13.40;32.60;;;;;;2592072;53;20920;-84
2022/04/20 03:22:38;;;;;;;1.35;0.60;;;13.30;32.60;;;;;;2591481;53;20916;-84
2022/04/20 03:25:05;;;;;;;3.03;0.85;;;13.30;32.70;;;;;;2591575;53;20924;-84
2022/04/20 03:27:31;;;;;;;2.58;0.77;;;13.20;32.70;;;;;;2346796;54;20948;-84
2022/04/20 03:29:58;;;;;;;1.75;0.68;;;13.20;32.70;;;;;;2573508;52;22097;-84
2022/04/20 03:32:24;;;;;;;2.33;0.90;;;13.10;32.70;;;;;;2345139;53;21424;-84
2022/04/20 03:34:50;;;;;;;2.17;1.00;;;13.00;32.80;;;;;;2591283;53;21972;-84
2022/04/20 03:37:17;;;;;;;1.67;0.77;;;13.00;32.80;;;;;;2345856;54;21926;-84
2022/04/20 03:39:43;;;;;;;1.75;0.73;;;12.90;32.80;;;;;;2338708;53;22037;-84
2022/04/20 03:42:09;;;;;;;2.53;1.00;;;12.90;32.90;;;;;;2576030;52;21929;-84
2022/04/20 03:44:36;;;;;;;2.42;0.90;;;12.80;32.90;;;;;;2591733;53;20983;-83
2022/04/20 03:47:03;;;;;;;3.12;1.45;;;12.80;33.10;;;;;;2346863;54;21961;-83
2022/04/20 03:49:30;;;;;;;3.62;1.02;;;12.70;33.30;;;;;;2592092;53;20916;-84
2022/04/20 03:51:56;;;;;;;2.30;0.90;;;12.70;33.40;;;;;;2592281;53;20984;-81
2022/04/20 03:54:23;;;;;;;2.25;0.85;;;12.60;33.40;;;;;;2346500;54;21047;-84
2022/04/20 03:57:04;;;;;;;2.17;0.90;;;12.60;33.60;;;;;;2575632;52;20913;-84
2022/04/20 03:59:32;;;;;;;2.35;1.00;;;12.50;33.70;;;;;;2591571;52;20988;-82
2022/04/20 04:01:59;;;;;;;2.53;1.10;;;12.40;33.80;;;;;;2576256;52;20955;-83
2022/04/20 04:04:26;;;;;;;2.60;1.20;;;12.40;33.90;;;;;;2578916;52;22033;-83
2022/04/20 04:06:53;;;;;;;2.80;1.00;;;12.30;33.90;;;;;;2340292;53;22017;-84
2022/04/20 04:09:20;;;;;;;1.77;0.80;;;12.20;33.90;;;;;;2590622;52;21918;-84
2022/04/20 04:11:46;;;;;;;1.87;0.90;;;12.20;34.00;;;;;;2571661;52;20916;-83
2022/04/20 04:14:12;;;;;;;4.30;1.00;;;12.20;34.00;;;;;;2342796;53;20948;-83
2022/04/20 04:16:39;;;;;;;2.00;0.80;;;12.10;34.10;;;;;;2343605;53;20924;-84
2022/04/20 04:19:06;;;;;;;2.42;1.08;;;12.00;34.00;;;;;;2591518;53;22077;-83
2022/04/20 04:21:35;;;;;;;6.53;1.42;;;11.90;34.10;;;;;;2570728;52;21858;-84
2022/04/20 04:24:01;;;;;;;1.90;0.80;;;11.90;34.30;;;;;;2586724;52;21070;-84
2022/04/20 04:26:30;;;;;;;2.45;0.95;;;11.80;34.30;;;;;;2592511;53;20908;-83
2022/04/20 04:28:57;;;;;;;2.40;0.98;;;11.80;34.40;;;;;;2346818;54;20916;-83
2022/04/20 04:31:24;;;;;;;2.30;1.00;;;11.80;34.60;;;;;;2345443;54;22072;-84
2022/04/20 04:33:51;;;;;;;2.10;1.00;;;11.70;34.60;;;;;;2569600;52;20924;-83
2022/04/20 04:36:17;;;;;;;2.80;0.98;;;11.60;34.70;;;;;;2592585;53;22018;-84
2022/04/20 04:38:44;;;;;;;2.55;1.02;;;11.60;34.70;;;;;;2592243;53;20947;-83
2022/04/20 04:41:10;;;;;;;2.03;0.90;;;11.60;34.80;;;;;;2592045;53;20999;-84
2022/04/20 04:43:37;;;;;;;3.92;0.90;;;11.50;34.80;;;;;;2342707;53;21011;-84
2022/04/20 04:48:48;;;;;;;1.92;0.77;;;11.40;34.90;;;;;;2347514;54;21063;-84
2022/04/20 04:51:15;;;;;;;2.25;1.10;;;11.40;35.00;;;;;;2346902;54;22013;-84
2022/04/20 04:53:42;;;;;;;3.20;1.10;;;11.30;35.10;;;;;;2328048;53;20966;-84
2022/04/20 04:56:09;;;;;;;2.30;1.10;;;11.30;35.30;;;;;;2347358;54;20915;-85
2022/04/20 04:58:36;;;;;;;4.30;1.15;;;11.30;35.40;;;;;;2587272;53;20999;-84
2022/04/20 05:01:02;;;;;;;2.95;1.20;;;11.20;35.40;;;;;;2571127;52;20924;-84
2022/04/20 05:03:28;;;;;;;2.30;1.00;;;11.20;35.50;;;;;;2594810;53;21023;-84
2022/04/20 05:05:54;;;;;;;2.30;1.02;;;11.20;35.60;;;;;;2596133;53;20946;-84
2022/04/20 05:08:21;;;;;;;2.53;1.17;;;11.10;35.60;;;;;;2596065;53;21941;-83
2022/04/20 05:10:47;;;;;;;2.85;1.20;;;11.10;35.70;;;;;;2569788;52;21372;-84
2022/04/20 05:13:14;;;;;;;2.30;1.00;;;11.10;35.80;;;;;;2595472;53;20956;-84
2022/04/20 05:15:41;;;;;;;2.72;1.30;;;11.00;35.90;;;;;;2586958;52;21004;-84
2022/04/20 05:18:08;;;;;;;2.80;1.37;;;11.00;36.00;;;;;;2330417;53;20942;-84
2022/04/20 05:20:34;;;;;;;2.30;1.10;;;11.00;36.20;;;;;;2589915;52;20968;-84
2022/04/20 05:23:00;;;;;;;2.72;1.10;;;11.00;36.20;;;;;;2593072;53;20948;-84
2022/04/20 05:25:27;;;;;;;2.90;1.37;;;10.90;36.20;;;;;;2593269;53;20928;-84
2022/04/20 05:27:53;;;;;;;2.42;1.25;;;10.90;36.40;;;;;;2327777;53;20943;-84
2022/04/20 05:30:19;;;;;;;2.45;1.12;;;10.90;36.60;;;;;;2592555;53;20991;-84
2022/04/20 05:32:47;;;;;;;2.85;1.20;;;10.90;36.70;;;;;;2346801;54;21082;-84
2022/04/20 05:35:13;;;;;;;2.35;1.02;;;10.90;36.70;;;;;;2592413;53;20996;-84
2022/04/20 05:43:09;;;;;;;3.15;1.55;;;10.90;36.90;;;;;;2345840;54;21054;-83
2022/04/20 05:45:36;;;;;;;3.28;1.55;;;11.00;37.10;;;;;;2591783;53;21031;-84
2022/04/20 05:48:07;;;;;;;3.22;1.40;;;11.00;37.20;;;;;;2591416;53;20924;-84
2022/04/20 05:50:33;;;;;;;3.08;1.48;;;11.00;37.40;;;;;;2345971;54;21043;-83
2022/04/20 05:53:00;;;;;;;4.07;1.70;;;11.00;37.40;;;;;;2590757;53;21007;-84
2022/04/20 05:55:26;;;;;;;3.70;1.62;;;11.10;37.40;;;;;;2346223;54;20952;-85
2022/04/20 05:57:53;;;;;;;3.12;1.30;;;11.10;37.50;;;;;;2345757;54;21611;-83
2022/04/20 06:00:19;;;;;;;2.37;1.20;;;11.10;37.50;;;;;;2591062;53;21030;-85
2022/04/20 06:02:45;;;;;;;3.15;1.48;;;11.20;37.60;;;;;;2591130;53;20975;-84
2022/04/20 06:05:12;;;;;;;3.78;1.77;;;11.20;37.70;;;;;;2344778;54;21086;-84
2022/04/20 06:07:39;;;;;;;3.42;1.60;;;11.30;37.80;;;;;;2591207;53;21027;-85
2022/04/20 06:10:06;;;;;;;3.47;1.50;;;11.30;37.80;;;;;;2591304;53;22236;-84
2022/04/20 06:12:33;;;;;;;3.45;1.70;;;11.40;37.90;;;;;;2326373;53;20951;-84
2022/04/20 06:14:59;;;;;;;3.60;1.40;;;11.40;37.90;;;;;;2346428;54;21043;-84
2022/04/20 06:17:26;;;;;;;4.22;1.55;;;11.50;38.00;;;;;;2590010;53;20939;-85
2022/04/20 06:19:52;;;;;;;3.33;1.30;;;11.40;38.00;;;;;;2590647;53;21621;-84
2022/04/20 06:22:19;;;;;;;4.22;1.40;;;11.60;38.20;;;;;;2590662;53;20947;-84
2022/04/20 06:24:45;;;;;;;2.55;1.33;;;11.70;38.30;;;;;;2590608;53;20912;-84
2022/04/20 06:27:12;;;;;;;3.47;1.55;;;11.80;38.30;;;;;;2576021;52;21019;-83
2022/04/20 06:29:38;;;;;;;6.90;1.60;;;11.80;38.20;;;;;;2569939;52;21003;-84
2022/04/20 06:32:06;;;;;;;3.45;1.70;;;11.90;38.30;;;;;;2588870;53;20908;-83
2022/04/20 06:34:33;;;;;;;2.92;1.40;;;12.00;38.40;;;;;;2345369;54;21055;-83
2022/04/20 06:37:00;;;;;;;2.85;1.60;;;12.00;38.30;;;;;;2344716;54;21003;-84
2022/04/20 06:39:27;;;;;;;3.47;1.65;;;12.20;38.50;;;;;;2590457;53;21007;-84
2022/04/20 06:41:54;;;;;;;3.12;1.15;;;12.30;38.50;;;;;;2562258;52;21006;-83
2022/04/20 06:44:21;;;;;;;3.17;1.52;;;12.40;38.60;;;;;;2589618;52;20904;-84
2022/04/20 06:46:47;;;;;;;4.43;1.75;;;12.50;38.50;;;;;;2590216;53;20984;-85
2022/04/20 06:49:17;;;;;;;3.80;1.80;;;12.50;38.40;;;;;;2346127;54;22244;-85
2022/04/20 06:59:58;;;;;;;4.10;1.65;;;13.20;39.60;;;;;;2571031;53;21030;-85
2022/04/20 07:02:25;;;;;;;5.18;1.80;;;13.50;40.10;;;;;;2582441;52;21027;-84
2022/04/20 07:04:51;;;;;;;4.35;1.60;;;13.90;40.40;;;;;;2590989;53;21121;-84
2022/04/20 07:07:18;;;;;;;3.67;1.55;;;14.20;40.60;;;;;;2591149;53;21023;-84
2022/04/20 07:09:44;;;;;;;3.50;1.40;;;14.50;40.60;;;;;;2590624;53;21051;-83
2022/04/20 07:12:11;;;;;;;3.60;1.25;;;14.90;40.70;;;;;;2344069;54;21049;-83
2022/04/20 07:14:37;;;;;;;3.20;1.30;;;15.30;40.80;;;;;;2345456;54;20912;-83
2022/04/20 07:17:06;;;;;;;2.45;1.10;;;15.70;40.70;;;;;;2345552;54;20936;-84
2022/04/20 07:19:32;;;;;;;2.08;0.90;;;16.10;40.70;;;;;;2590716;53;21998;-84
2022/04/20 07:21:58;;;;;;;2.62;1.25;;;16.50;40.30;;;;;;2590303;53;21055;-84
2022/04/20 07:24:25;;;;;;;2.90;1.27;;;16.80;39.60;;;;;;2345023;54;20908;-84
2022/04/20 07:26:51;;;;;;;2.12;0.90;;;17.00;38.90;;;;;;2589736;53;21339;-83
2022/04/20 07:29:17;;;;;;;2.50;1.00;;;17.30;38.70;;;;;;2590001;53;21038;-84
2022/04/20 07:31:45;;;;;;;3.12;1.40;;;17.40;38.10;;;;;;2345593;54;20992;-84
2022/04/20 07:34:12;;;;;;;1.92;0.93;;;17.60;37.70;;;;;;2591300;53;21270;-83
2022/04/20 07:36:39;;;;;;;4.28;1.37;;;17.80;37.50;;;;;;2590485;53;20925;-84
2022/04/20 07:39:05;;;;;;;2.05;0.98;;;17.90;37.20;;;;;;2344685;54;21034;-84
2022/04/20 07:41:32;;;;;;;2.80;1.30;;;18.10;37.20;;;;;;2344828;54;21835;-84
2022/04/20 07:43:58;;;;;;;2.90;1.10;;;18.20;36.70;;;;;;2344766;54;20971;-84
2022/04/20 07:46:25;;;;;;;2.50;1.20;;;18.40;36.40;;;;;;2584223;53;22090;-84
2022/04/20 07:48:51;;;;;;;2.20;0.90;;;18.50;36.20;;;;;;2565220;52;20940;-83
2022/04/20 07:51:18;;;;;;;2.45;1.00;;;18.60;35.80;;;;;;2590095;53;20928;-84
2022/04/20 07:53:44;;;;;;;2.97;1.20;;;18.60;35.40;;;;;;2589012;53;21075;-83
2022/04/20 07:56:11;;;;;;;2.45;0.90;;;18.60;34.80;;;;;;2589980;53;21818;-84
2022/04/20 07:58:37;;;;;;;2.53;1.17;;;18.60;34.30;;;;;;2590268;53;21342;-84
2022/04/20 08:01:04;;;;;;;2.10;0.93;;;18.50;34.10;;;;;;2589872;53;21971;-83
2022/04/20 08:03:31;;;;;;;1.85;0.90;;;18.50;34.20;;;;;;2589344;53;20984;-84
2022/04/20 08:05:59;;;;;;;2.20;1.00;;;18.50;34.10;;;;;;2343796;54;21269;-84
2022/04/20 08:08:25;;;;;;;3.12;1.20;;;18.40;34.00;;;;;;2343598;54;20968;-83
2022/04/20 08:10:51;;;;;;;3.60;1.15;;;18.50;34.20;;;;;;2344087;54;21154;-85
2022/04/20 08:16:03;;;;;;;2.62;1.00;;;18.50;34.30;;;;;;2590987;53;20973;-83
2022/04/20 08:18:29;;;;;;;2.72;0.90;;;18.60;34.30;;;;;;2591232;53;21933;-84
2022/04/20 08:20:56;;;;;;;2.53;1.05;;;18.70;34.60;;;;;;2580214;53;20979;-85
2022/04/20 08:23:24;;;;;;;3.15;1.17;;;18.90;34.90;;;;;;2331287;53;21022;-83
2022/04/20 08:25:51;;;;;;;2.37;1.00;;;19.20;35.00;;;;;;2345132;54;20943;-84
2022/04/20 08:28:17;;;;;;;2.20;1.00;;;19.40;34.80;;;;;;2345760;54;21015;-83
2022/04/20 08:30:44;;;;;;;3.62;1.15;;;19.60;34.30;;;;;;2591047;53;21931;-84
2022/04/20 08:33:10;;;;;;;2.42;0.90;;;19.70;34.00;;;;;;2591458;53;21042;-84
2022/04/20 08:35:37;;;;;;;2.17;0.90;;;19.90;34.00;;;;;;2591233;53;20968;-84
2022/04/20 08:38:05;;;;;;;2.33;1.05;;;20.10;34.00;;;;;;2589483;53;20943;-84
2022/04/20 08:40:32;;;;;;;3.42;1.10;;;20.20;33.70;;;;;;2579351;52;20963;-84
2022/04/20 08:43:03;;;;;;;2.90;1.15;;;20.30;33.30;;;;;;2571752;52;21039;-84
2022/04/20 08:45:29;;;;;;;2.17;0.95;;;20.50;32.80;;;;;;2580956;52;21062;-83
2022/04/20 08:47:56;;;;;;;2.53;1.02;;;20.50;32.60;;;;;;2571230;52;20940;-85
2022/04/20 08:50:22;;;;;;;3.72;0.98;;;20.50;32.10;;;;;;2345624;54;20924;-84
2022/04/20 08:52:50;;;;;;;2.55;1.00;;;20.50;32.10;;;;;;2590010;53;20971;-85
2022/04/20 08:55:17;;;;;;;3.33;1.00;;;20.40;31.70;;;;;;2345213;54;20924;-83
2022/04/20 08:57:45;;;;;;;2.87;1.33;;;20.60;31.60;;;;;;2591787;53;21063;-84
2022/04/20 09:00:20;;;;;;;2.45;1.08;;;20.50;31.60;;;;;;2563094;52;20932;-84
2022/04/20 09:02:50;;;;;;;3.00;1.10;;;20.50;31.60;;;;;;2588446;53;21961;-85
2022/04/20 09:05:16;;;;;;;2.80;0.90;;;20.50;31.50;;;;;;2334392;53;21058;-84
2022/04/20 09:07:44;;;;;;;1.92;0.85;;;20.60;31.70;;;;;;2581419;52;21878;-82
2022/04/20 09:10:10;;;;;;;2.15;0.88;;;20.70;32.40;;;;;;2588617;53;21959;-84
2022/04/20 09:12:41;;;;;;;1.95;0.90;;;20.80;31.60;;;;;;2591740;53;20996;-84
2022/04/20 09:15:09;;;;;;;2.95;1.20;;;20.90;31.20;;;;;;2326857;53;21037;-84
2022/04/20 09:17:46;;;;;;;2.20;1.00;;;21.00;31.30;;;;;;2591393;53;21099;-84
2022/04/20 09:20:19;;;;;;;2.40;0.90;;;21.10;31.10;;;;;;2590386;53;21015;-84
2022/04/20 09:23:07;;;;;;;3.65;0.93;;;21.20;31.00;;;;;;2580422;52;22038;-84
2022/04/20 09:25:34;;;;;;;2.12;0.88;;;21.20;30.80;;;;;;2581027;52;20996;-84
2022/04/20 09:28:01;;;;;;;2.20;1.00;;;21.30;31.00;;;;;;2591587;53;20923;-84
2022/04/20 09:30:38;;;;;;;2.40;0.95;;;21.30;30.90;;;;;;2585517;53;21991;-84
2022/04/20 09:33:10;;;;;;;4.35;1.10;;;21.40;30.40;;;;;;2572378;52;20979;-85
2022/04/20 09:35:55;;;;;;;2.60;1.10;;;21.40;30.30;;;;;;2592177;53;20921;-84
2022/04/20 09:38:21;;;;;;;2.67;1.20;;;21.30;29.90;;;;;;2590882;53;20928;-83
2022/04/20 09:40:49;;;;;;;2.70;1.05;;;21.30;30.00;;;;;;2591676;53;20970;-84
2022/04/20 09:43:16;;;;;;;2.47;1.12;;;21.20;29.90;;;;;;2346258;54;20936;-85
2022/04/20 09:45:43;;;;;;;3.03;1.10;;;21.10;29.80;;;;;;2591860;53;20939;-82
2022/04/20 09:51:14;;;;;;;2.45;1.00;;;21.00;29.90;;;;;;2591390;53;21011;-84
2022/04/20 09:53:42;;;;;;;2.65;1.00;;;21.00;30.00;;;;;;2591612;53;21890;-84
2022/04/20 09:56:19;;;;;;;2.30;1.00;;;21.00;30.00;;;;;;2345991;54;20943;-84
2022/04/20 09:58:46;;;;;;;2.10;1.00;;;21.00;29.70;;;;;;2591233;53;20939;-85
2022/04/20 10:01:25;;;;;;;3.00;1.42;;;21.00;29.70;;;;;;2591549;53;20967;-84
2022/04/20 10:03:57;;;;;;;2.90;1.30;;;21.00;29.80;;;;;;2591840;53;20952;-86
2022/04/20 10:06:23;;;;;;;2.50;1.10;;;21.10;29.70;;;;;;2346759;54;21018;-85
2022/04/20 10:08:50;;;;;;;4.12;1.35;;;21.10;29.70;;;;;;2592560;53;20940;-84
2022/04/20 10:11:16;;;;;;;4.90;0.98;;;21.10;29.80;;;;;;2346516;54;20979;-84
2022/04/20 10:13:43;;;;;;;2.33;1.00;;;21.20;29.80;;;;;;2592483;53;20956;-84
2022/04/20 10:16:11;;;;;;;2.60;1.17;;;21.20;29.60;;;;;;2346441;54;20927;-85
2022/04/20 10:18:41;;;;;;;3.55;1.25;;;21.30;29.50;;;;;;2591883;53;20923;-85
2022/04/20 10:21:11;;;;;;;3.05;1.15;;;21.30;29.30;;;;;;2346492;54;20955;-84
2022/04/20 10:23:44;;;;;;;2.53;0.93;;;21.30;29.10;;;;;;2345111;53;21031;-84
2022/04/20 10:26:10;;;;;;;2.50;1.10;;;21.30;29.40;;;;;;2572906;52;21514;-85
2022/04/20 10:29:05;;;;;;;3.40;1.08;;;21.40;29.60;;;;;;2332127;53;20997;-84
2022/04/20 10:31:46;;;;;;;3.67;1.40;;;21.40;29.20;;;;;;2345771;53;20928;-84
2022/04/20 10:34:14;;;;;;;2.40;1.10;;;21.40;29.20;;;;;;2585383;52;21011;-84
2022/04/20 10:36:40;;;;;;;3.20;1.00;;;21.40;29.10;;;;;;2571575;52;21886;-85
2022/04/20 10:39:24;;;;;;;2.20;0.90;;;21.40;28.90;;;;;;2591802;53;21008;-82
2022/04/20 10:42:28;;;;;;;4.30;1.40;;;21.40;28.50;;;;;;2592117;53;20979;-85
2022/04/20 10:45:16;;;;;;;2.65;1.02;;;21.40;28.30;;;;;;2582992;53;21007;-85
2022/04/20 10:47:44;;;;;;;2.35;1.05;;;21.30;28.30;;;;;;2337510;53;20940;-85
2022/04/20 10:50:22;;;;;;;2.50;1.00;;;21.30;28.40;;;;;;2591739;53;20888;-84
2022/04/20 10:52:58;;;;;;;3.20;0.95;;;21.20;28.40;;;;;;2590873;53;20951;-84
2022/04/20 10:56:01;;;;;;;2.53;0.93;;;21.20;28.60;;;;;;2592556;53;20931;-84
2022/04/20 10:58:27;;;;;;;3.37;1.05;;;21.30;28.80;;;;;;2346218;54;21914;-84
2022/04/20 11:01:11;;;;;;;2.33;0.85;;;21.30;28.90;;;;;;2591618;53;20908;-85
2022/04/20 11:04:06;;;;;;;2.40;1.05;;;21.40;28.70;;;;;;2591891;53;20995;-85
2022/04/20 11:07:26;;;;;;;2.97;1.12;;;21.50;28.50;;;;;;2591804;53;21015;-84
2022/04/20 11:09:57;;;;;;;2.15;0.80;;;21.50;28.60;;;;;;2562816;52;20935;-85
2022/04/20 11:19:12;;;;;;;2.37;1.12;;;21.70;28.20;;;;;;2591820;53;20940;-83
2022/04/20 11:21:52;;;;;;;3.33;1.17;;;21.70;28.20;;;;;;2591420;53;21411;-85
2022/04/20 11:24:36;;;;;;;2.53;1.08;;;21.80;28.00;;;;;;2592466;53;21331;-84
2022/04/20 11:27:03;;;;;;;4.43;1.25;;;21.80;27.80;;;;;;2346475;54;21738;-85
2022/04/20 11:29:29;;;;;;;2.47;1.00;;;21.80;28.00;;;;;;2591800;53;21980;-84
2022/04/20 11:32:09;;;;;;;3.40;1.05;;;21.80;28.00;;;;;;2575393;53;21848;-83
2022/04/20 11:34:38;;;;;;;3.37;1.00;;;21.80;27.80;;;;;;2563622;52;20955;-83
2022/04/20 11:37:06;;;;;;;2.25;1.23;;;21.90;27.90;;;;;;2582807;52;20912;-85
2022/04/20 11:39:33;;;;;;;5.35;1.30;;;21.90;28.30;;;;;;2593455;53;20999;-85
2022/04/20 11:42:00;;;;;;;3.30;1.30;;;21.90;27.80;;;;;;2593697;53;21841;-83
2022/04/20 11:44:42;;;;;;;2.33;1.10;;;21.90;27.90;;;;;;2346269;53;20982;-83
2022/04/20 11:47:09;;;;;;;2.50;1.10;;;21.90;27.80;;;;;;2336913;53;21015;-85
2022/04/20 11:49:39;;;;;;;2.45;1.08;;;22.00;27.90;;;;;;2593339;53;20936;-84
2022/04/20 11:52:06;;;;;;;2.87;0.95;;;22.00;27.80;;;;;;2592961;53;21358;-85
2022/04/20 11:54:33;;;;;;;2.53;1.05;;;22.00;27.90;;;;;;2591833;53;21047;-85
2022/04/20 11:57:00;;;;;;;3.12;1.00;;;22.10;28.00;;;;;;2346621;54;20976;-84
2022/04/20 11:59:28;;;;;;;3.17;1.50;;;22.10;27.90;;;;;;2590695;53;21023;-84
2022/04/20 12:01:56;;;;;;;2.53;1.00;;;22.30;28.00;;;;;;2326851;53;20934;-85
2022/04/20 12:04:26;;;;;;;5.20;0.90;;;22.30;28.00;;;;;;2590810;53;20919;-86
2022/04/20 12:07:00;;;;;;;2.40;1.10;;;22.30;27.90;;;;;;2346447;54;20944;-85
2022/04/20 12:09:37;;;;;;;3.28;1.10;;;22.40;27.70;;;;;;2592069;53;21094;-84
2022/04/20 12:12:05;;;;;;;2.70;1.20;;;22.50;27.50;;;;;;2334908;53;20984;-85
2022/04/20 12:14:33;;;;;;;2.70;1.17;;;22.50;27.60;;;;;;2591442;52;21087;-83
2022/04/20 12:17:09;;;;;;;3.47;1.50;;;22.50;27.50;;;;;;2346756;54;22151;-82
2022/04/20 12:19:40;;;;;;;3.67;0.90;;;22.60;27.40;;;;;;2347097;54;21031;-82
2022/04/20 12:22:07;;;;;;;2.40;1.05;;;22.50;27.30;;;;;;2592824;53;21391;-83
2022/04/20 12:24:34;;;;;;;2.55;1.27;;;22.50;27.30;;;;;;2592051;53;21047;-83
2022/04/20 12:27:00;;;;;;;2.55;1.00;;;22.60;26.90;;;;;;2346704;54;20927;-84
2022/04/20 12:29:32;;;;;;;3.33;1.20;;;22.60;26.90;;;;;;2592690;53;20982;-83
2022/04/20 12:31:58;;;;;;;2.65;1.00;;;22.60;26.90;;;;;;2591587;53;21031;-83
2022/04/20 12:34:25;;;;;;;3.72;1.20;;;22.60;26.80;;;;;;2591850;53;20988;-84
2022/04/20 12:37:39;;;;;;;2.58;1.00;;;22.60;26.90;;;;;;2591831;53;20932;-84
2022/04/20 12:40:19;;;;;;;3.08;1.00;;;22.60;26.90;;;;;;2346488;54;20955;-83
2022/04/20 12:43:05;;;;;;;4.15;0.93;;;22.60;26.70;;;;;;2591256;53;21107;-84
2022/04/20 12:45:32;;;;;;;2.50;1.17;;;22.70;26.70;;;;;;2591844;53;21306;-85
2022/04/20 12:48:06;;;;;;;2.55;1.00;;;22.80;26.90;;;;;;2346181;54;20927;-83
2022/04/20 12:50:50;;;;;;;2.65;1.20;;;22.70;26.70;;;;;;2332814;53;20959;-86
2022/04/20 12:53:16;;;;;;;2.40;0.98;;;22.80;26.60;;;;;;2589190;52;20959;-85
2022/04/20 13:02:01;;;;;;;3.30;1.10;;;22.80;26.90;;;;;;2592107;53;21035;-84
2022/04/20 13:04:28;;;;;;;2.60;1.08;;;22.80;26.90;;;;;;2346130;54;21008;-85
2022/04/20 13:06:56;;;;;;;2.20;1.05;;;23.00;26.60;;;;;;2590080;53;21010;-84
2022/04/20 13:09:22;;;;;;;2.60;1.00;;;23.00;26.60;;;;;;2591422;53;21043;-84
2022/04/20 13:11:49;;;;;;;2.53;1.10;;;23.00;26.60;;;;;;2590912;53;21054;-85
2022/04/20 13:14:15;;;;;;;2.92;1.23;;;23.00;26.50;;;;;;2590967;53;22077;-84
2022/04/20 13:16:41;;;;;;;2.92;1.17;;;23.00;26.40;;;;;;2345372;54;21434;-85
2022/04/20 13:19:08;;;;;;;2.28;0.98;;;23.10;26.50;;;;;;2591068;53;21742;-84
2022/04/20 13:21:34;;;;;;;3.10;1.20;;;23.00;26.40;;;;;;2345626;54;20995;-83
2022/04/20 13:24:02;;;;;;;2.58;1.12;;;23.10;26.50;;;;;;2562822;53;21031;-84
2022/04/20 13:29:14;;;;;;;2.97;0.88;;;23.20;26.50;;;;;;2589256;53;20979;-85
2022/04/20 13:31:40;;;;;;;2.35;1.00;;;23.20;26.30;;;;;;2589731;53;20944;-83
2022/04/20 13:34:07;;;;;;;3.35;1.17;;;23.20;26.00;;;;;;2345501;54;21968;-84
2022/04/20 13:36:34;;;;;;;3.12;1.02;;;23.20;26.00;;;;;;2590710;53;20999;-85